Time;durP1;ratioP1;P1;durP2;ratioP2;P2;SDS_P1;SDS_P2;PMS_P1;PMS_P2;Temp;Humidity;BMP_temperature;BMP_pressure;BME280_temperature;BME280_humidity;BME280_pressure;Samples;Min_cycle;Max_cycle;Signal;HPM_P1;HPM_P2
2022/02/15 00:01:13;;;;;;;;;;;16.40;99.90;;;;;;5110674;28;1349;-47
2022/02/15 00:03:58;;;;;;;;;;;16.40;99.90;;;;;;5113664;28;1420;-55
2022/02/15 00:06:43;;;;;;;;;;;16.40;99.90;;;;;;5114238;28;1362;-54
2022/02/15 00:09:27;;;;;;;;;;;16.30;99.90;;;;;;5113795;28;722;-54
2022/02/15 00:12:12;;;;;;;;;;;16.30;99.90;;;;;;5101156;28;945;-54
2022/02/15 00:14:56;;;;;;;;;;;16.30;99.90;;;;;;5102308;28;721;-54
2022/02/15 00:17:41;;;;;;;;;;;16.30;99.90;;;;;;5117554;28;1957;-54
2022/02/15 00:20:27;;;;;;;;;;;16.20;99.90;;;;;;5117569;28;683;-54
2022/02/15 00:23:11;;;;;;;;;;;16.20;99.90;;;;;;5116862;28;571;-54
2022/02/15 00:25:56;;;;;;;;;;;16.20;99.90;;;;;;5117401;28;678;-54
2022/02/15 00:28:40;;;;;;;;;;;16.10;99.90;;;;;;5115802;28;965;-54
2022/02/15 00:31:25;;;;;;;;;;;16.10;99.90;;;;;;5117496;28;674;-54
2022/02/15 00:34:10;;;;;;;;;;;16.10;99.90;;;;;;5117363;28;665;-54
2022/02/15 00:36:54;;;;;;;;;;;16.10;99.90;;;;;;5116655;28;1003;-54
2022/02/15 00:39:39;;;;;;;;;;;16.00;99.90;;;;;;5117278;28;1890;-51
2022/02/15 00:42:24;;;;;;;;;;;16.00;99.90;;;;;;5118037;28;843;-47
2022/02/15 00:45:09;;;;;;;;;;;16.00;99.90;;;;;;5117017;28;753;-46
2022/02/15 00:47:53;;;;;;;;;;;16.00;99.90;;;;;;5117099;28;665;-47
2022/02/15 00:50:38;;;;;;;;;;;15.90;99.90;;;;;;5117242;28;669;-47
2022/02/15 00:53:22;;;;;;;;;;;15.90;99.90;;;;;;5117061;28;761;-46
2022/02/15 00:56:07;;;;;;;;;;;15.90;99.90;;;;;;5101875;28;709;-46
2022/02/15 00:58:51;;;;;;;;;;;15.90;99.90;;;;;;5116305;28;1971;-46
2022/02/15 01:01:36;;;;;;;;;;;15.80;99.90;;;;;;5117020;28;713;-46
2022/02/15 01:04:21;;;;;;;;;;;15.80;99.90;;;;;;5114274;28;1252;-46
2022/02/15 01:07:06;;;;;;;;;;;15.80;99.90;;;;;;5117033;28;721;-46
2022/02/15 01:09:50;;;;;;;;;;;15.70;99.90;;;;;;5116737;28;721;-47
2022/02/15 01:12:35;;;;;;;;;;;15.70;99.90;;;;;;5116892;28;669;-46
2022/02/15 01:15:19;;;;;;;;;;;15.70;99.90;;;;;;5116774;28;737;-46
2022/02/15 01:18:04;;;;;;;;;;;15.70;99.90;;;;;;5114757;28;1963;-47
2022/02/15 01:20:48;;;;;;;;;;;15.70;99.90;;;;;;5120295;28;683;-46
2022/02/15 01:23:33;;;;;;;;;;;15.60;99.90;;;;;;5121100;28;673;-53
2022/02/15 01:26:17;;;;;;;;;;;15.60;99.90;;;;;;5120935;28;780;-54
2022/02/15 01:29:02;;;;;;;;;;;15.60;99.90;;;;;;5120694;28;666;-53
2022/02/15 01:31:46;;;;;;;;;;;15.60;99.90;;;;;;5116757;28;678;-54
2022/02/15 01:34:31;;;;;;;;;;;15.50;99.90;;;;;;5120728;28;709;-46
2022/02/15 01:37:15;;;;;;;;;;;15.50;99.90;;;;;;5114728;28;1312;-46
2022/02/15 01:40:00;;;;;;;;;;;15.50;99.90;;;;;;5116584;28;1961;-46
2022/02/15 01:42:45;;;;;;;;;;;15.50;99.90;;;;;;5120679;28;725;-46
2022/02/15 01:45:29;;;;;;;;;;;15.40;99.90;;;;;;5119994;28;722;-46
2022/02/15 01:48:14;;;;;;;;;;;15.40;99.90;;;;;;5116361;28;678;-46
2022/02/15 01:50:59;;;;;;;;;;;15.40;99.90;;;;;;5120521;28;761;-45
2022/02/15 01:53:44;;;;;;;;;;;15.40;99.90;;;;;;5120449;28;678;-46
2022/02/15 01:56:29;;;;;;;;;;;15.40;99.90;;;;;;5115204;28;1288;-46
2022/02/15 01:59:13;;;;;;;;;;;15.30;99.90;;;;;;5118497;28;1976;-46
2022/02/15 02:01:58;;;;;;;;;;;15.30;99.90;;;;;;5120136;28;721;-46
2022/02/15 02:07:46;;;;;;;;;;;15.30;99.90;;;;;;5119870;28;661;-53
2022/02/15 02:10:31;;;;;;;;;;;15.30;99.90;;;;;;5116233;28;729;-53
2022/02/15 02:13:16;;;;;;;;;;;15.20;99.90;;;;;;5120028;28;709;-53
2022/02/15 02:16:00;;;;;;;;;;;15.20;99.90;;;;;;5119782;28;679;-53
2022/02/15 02:18:45;;;;;;;;;;;15.20;99.90;;;;;;5116088;28;1985;-53
2022/02/15 02:21:36;;;;;;;;;;;15.20;99.90;;;;;;5119638;28;678;-53
2022/02/15 02:24:21;;;;;;;;;;;15.20;99.90;;;;;;5119902;28;677;-53
2022/02/15 02:27:06;;;;;;;;;;;15.10;99.90;;;;;;5119811;28;769;-53
2022/02/15 02:29:51;;;;;;;;;;;15.10;99.90;;;;;;5118978;28;705;-53
2022/02/15 02:32:36;;;;;;;;;;;15.10;99.90;;;;;;5119593;28;748;-53
2022/02/15 02:35:22;;;;;;;;;;;15.10;99.90;;;;;;5119612;28;725;-53
2022/02/15 02:38:06;;;;;;;;;;;15.10;99.90;;;;;;5119460;28;1902;-53
2022/02/15 02:40:51;;;;;;;;;;;15.00;99.90;;;;;;5119387;28;629;-53
2022/02/15 02:43:35;;;;;;;;;;;15.00;99.90;;;;;;5119469;28;784;-53
2022/02/15 02:46:20;;;;;;;;;;;15.00;99.90;;;;;;5119367;28;701;-53
2022/02/15 02:49:04;;;;;;;;;;;15.00;99.90;;;;;;5119374;28;744;-53
2022/02/15 02:51:49;;;;;;;;;;;15.00;99.90;;;;;;5119379;28;729;-53
2022/02/15 02:54:33;;;;;;;;;;;14.90;99.90;;;;;;5119074;28;705;-53
2022/02/15 02:57:18;;;;;;;;;;;14.90;99.90;;;;;;5118774;28;1182;-53
2022/02/15 03:00:07;;;;;;;;;;;14.90;99.90;;;;;;5118681;28;1909;-53
2022/02/15 03:02:52;;;;;;;;;;;14.90;99.90;;;;;;5118799;28;714;-53
2022/02/15 03:05:36;;;;;;;;;;;14.90;99.90;;;;;;5119028;28;732;-53
2022/02/15 03:08:21;;;;;;;;;;;14.80;99.90;;;;;;5119032;28;768;-53
2022/02/15 03:11:06;;;;;;;;;;;14.80;99.90;;;;;;5118262;28;1288;-54
2022/02/15 03:13:50;;;;;;;;;;;14.80;99.90;;;;;;5114303;28;674;-53
2022/02/15 03:16:35;;;;;;;;;;;14.80;99.90;;;;;;5118469;28;698;-53
2022/02/15 03:19:20;;;;;;;;;;;14.80;99.90;;;;;;5118615;28;1963;-53
2022/02/15 03:22:04;;;;;;;;;;;14.80;99.90;;;;;;5118715;28;685;-53
2022/02/15 03:24:49;;;;;;;;;;;14.70;99.90;;;;;;5118459;28;752;-53
2022/02/15 03:27:33;;;;;;;;;;;14.70;99.90;;;;;;5111971;28;976;-53
2022/02/15 03:30:18;;;;;;;;;;;14.70;99.90;;;;;;5113805;28;718;-53
2022/02/15 03:33:02;;;;;;;;;;;14.70;99.90;;;;;;5118426;28;713;-53
2022/02/15 03:35:47;;;;;;;;;;;14.70;99.90;;;;;;5118290;28;667;-53
2022/02/15 03:38:31;;;;;;;;;;;14.70;99.90;;;;;;5118233;28;1969;-53
2022/02/15 03:44:19;;;;;;;;;;;14.60;99.90;;;;;;5113541;28;730;-53
2022/02/15 03:47:04;;;;;;;;;;;14.60;99.90;;;;;;5113629;28;1371;-46
2022/02/15 03:49:48;;;;;;;;;;;14.60;99.90;;;;;;5116565;28;679;-46
2022/02/15 03:52:33;;;;;;;;;;;14.60;99.90;;;;;;5114708;28;718;-47
2022/02/15 03:55:18;;;;;;;;;;;14.60;99.90;;;;;;5115214;28;1078;-53
2022/02/15 03:58:04;;;;;;;;;;;14.60;99.90;;;;;;5055125;28;1092;-53
2022/02/15 04:00:48;;;;;;;;;;;14.50;99.90;;;;;;5051112;28;920;-53
2022/02/15 04:03:33;;;;;;;;;;;14.50;99.90;;;;;;5055336;28;739;-53
2022/02/15 04:06:17;;;;;;;;;;;14.50;99.90;;;;;;5054806;28;888;-53
2022/02/15 04:09:02;;;;;;;;;;;14.50;99.90;;;;;;5049147;28;1426;-53
2022/02/15 04:11:46;;;;;;;;;;;14.50;99.90;;;;;;5055102;28;901;-53
2022/02/15 04:14:31;;;;;;;;;;;14.50;99.90;;;;;;5055172;28;734;-53
2022/02/15 04:17:16;;;;;;;;;;;14.50;99.90;;;;;;5055134;28;877;-53
2022/02/15 04:20:00;;;;;;;;;;;14.40;99.90;;;;;;5054861;28;1913;-53
2022/02/15 04:22:45;;;;;;;;;;;14.40;99.90;;;;;;5055063;28;1075;-53
2022/02/15 04:25:29;;;;;;;;;;;14.40;99.90;;;;;;5050466;28;687;-53
2022/02/15 04:28:14;;;;;;;;;;;14.40;99.90;;;;;;5071749;28;983;-53
2022/02/15 04:30:58;;;;;;;;;;;14.40;99.90;;;;;;5117537;28;724;-53
2022/02/15 04:33:43;;;;;;;;;;;14.40;99.90;;;;;;5117555;28;1027;-53
2022/02/15 04:36:27;;;;;;;;;;;14.40;99.90;;;;;;5115376;28;845;-53
2022/02/15 04:39:14;;;;;;;;;;;14.40;99.90;;;;;;5102102;28;1910;-53
2022/02/15 04:41:59;;;;;;;;;;;14.30;99.90;;;;;;5117099;28;579;-53
2022/02/15 04:44:43;;;;;;;;;;;14.30;99.90;;;;;;5116980;28;705;-46
2022/02/15 04:47:28;;;;;;;;;;;14.30;99.90;;;;;;5117322;28;721;-46
2022/02/15 04:50:12;;;;;;;;;;;14.30;99.90;;;;;;5117235;28;732;-46
2022/02/15 04:52:57;;;;;;;;;;;14.30;99.90;;;;;;5116900;28;753;-46
2022/02/15 04:55:41;;;;;;;;;;;14.30;99.90;;;;;;5116756;28;665;-53
2022/02/15 04:58:26;;;;;;;;;;;14.30;99.90;;;;;;5112518;28;1971;-53
2022/02/15 05:01:13;;;;;;;;;;;14.20;99.90;;;;;;5116638;28;1300;-53
2022/02/15 05:03:58;;;;;;;;;;;14.20;99.90;;;;;;5111749;28;1224;-53
2022/02/15 05:06:43;;;;;;;;;;;14.30;99.90;;;;;;5116985;28;721;-53
2022/02/15 05:09:28;;;;;;;;;;;14.20;99.90;;;;;;5116953;28;756;-53
2022/02/15 05:12:13;;;;;;;;;;;14.20;99.90;;;;;;5116736;28;666;-53
2022/02/15 05:14:58;;;;;;;;;;;14.20;99.90;;;;;;5116941;28;669;-53
2022/02/15 05:17:46;;;;;;;;;;;14.20;99.90;;;;;;5116819;28;693;-53
2022/02/15 05:20:33;;;;;;;;;;;14.20;99.90;;;;;;5116608;28;1910;-53
2022/02/15 05:23:17;;;;;;;;;;;14.10;99.90;;;;;;5114275;28;754;-53
2022/02/15 05:26:03;;;;;;;;;;;14.10;99.90;;;;;;5116455;28;753;-53
2022/02/15 05:28:47;;;;;;;;;;;14.10;99.90;;;;;;5112179;28;734;-53
2022/02/15 05:31:32;;;;;;;;;;;14.10;99.90;;;;;;5116754;28;729;-53
2022/02/15 05:34:16;;;;;;;;;;;14.10;99.90;;;;;;5114895;28;965;-53
2022/02/15 05:37:01;;;;;;;;;;;14.10;99.90;;;;;;5112006;28;745;-53
2022/02/15 05:39:45;;;;;;;;;;;14.10;99.90;;;;;;5116307;28;1906;-53
2022/02/15 05:42:30;;;;;;;;;;;14.00;99.90;;;;;;5116661;28;686;-53
2022/02/15 05:45:15;;;;;;;;;;;14.00;99.90;;;;;;5116758;28;685;-53
2022/02/15 05:48:00;;;;;;;;;;;14.00;99.90;;;;;;5116610;28;714;-53
2022/02/15 05:50:51;;;;;;;;;;;14.00;99.90;;;;;;5116563;28;724;-53
2022/02/15 05:53:35;;;;;;;;;;;14.00;99.90;;;;;;5116553;28;673;-53
2022/02/15 05:56:20;;;;;;;;;;;14.00;99.90;;;;;;5110963;28;1273;-53
2022/02/15 05:59:04;;;;;;;;;;;14.00;99.90;;;;;;5114554;28;1977;-53
2022/02/15 06:01:49;;;;;;;;;;;14.00;99.90;;;;;;5112003;28;1305;-53
2022/02/15 06:04:34;;;;;;;;;;;14.00;99.90;;;;;;5116368;28;745;-53
2022/02/15 06:07:19;;;;;;;;;;;14.00;99.90;;;;;;5120123;28;681;-53
2022/02/15 06:10:04;;;;;;;;;;;14.00;99.90;;;;;;5104735;28;714;-53
2022/02/15 06:12:48;;;;;;;;;;;14.00;99.90;;;;;;5120030;28;752;-53
2022/02/15 06:15:33;;;;;;;;;;;14.10;99.90;;;;;;5119960;28;708;-53
2022/02/15 06:18:18;;;;;;;;;;;14.10;99.90;;;;;;5119984;28;681;-53
2022/02/15 06:21:02;;;;;;;;;;;14.10;99.90;;;;;;5119886;28;713;-53
2022/02/15 06:23:47;;;;;;;;;;;14.20;99.90;;;;;;5119879;28;665;-53
2022/02/15 06:26:32;;;;;;;;;;;14.30;99.90;;;;;;5119440;28;661;-53
2022/02/15 06:29:17;;;;;;;;;;;14.30;99.90;;;;;;5119773;28;752;-53
2022/02/15 06:32:02;;;;;;;;;;;14.40;99.90;;;;;;5118687;28;643;-53
2022/02/15 06:34:46;;;;;;;;;;;14.50;99.90;;;;;;5119588;28;713;-53
2022/02/15 06:37:31;;;;;;;;;;;14.60;99.90;;;;;;5119666;28;756;-53
2022/02/15 06:40:17;;;;;;;;;;;14.60;99.90;;;;;;5118921;28;1905;-53
2022/02/15 06:43:01;;;;;;;;;;;14.70;99.90;;;;;;5119437;28;674;-53
2022/02/15 06:45:46;;;;;;;;;;;14.80;99.90;;;;;;5119441;28;713;-53
2022/02/15 06:48:30;;;;;;;;;;;14.80;99.90;;;;;;5119454;28;713;-53
2022/02/15 06:51:15;;;;;;;;;;;14.90;99.90;;;;;;5119328;28;670;-53
2022/02/15 06:53:59;;;;;;;;;;;14.90;99.90;;;;;;5118727;28;1204;-53
2022/02/15 06:56:44;;;;;;;;;;;15.00;99.90;;;;;;5118268;28;705;-53
2022/02/15 06:59:28;;;;;;;;;;;15.00;99.90;;;;;;5115486;28;1902;-53
2022/02/15 07:02:12;;;;;;;;;;;15.10;99.90;;;;;;5119098;28;713;-53
2022/02/15 07:04:57;;;;;;;;;;;15.10;99.90;;;;;;5118926;28;661;-54
2022/02/15 07:07:42;;;;;;;;;;;15.10;99.90;;;;;;5118632;28;1390;-53
2022/02/15 07:10:27;;;;;;;;;;;15.20;99.90;;;;;;5118667;28;772;-53
2022/02/15 07:13:12;;;;;;;;;;;15.20;99.90;;;;;;5118292;28;709;-53
2022/02/15 07:15:57;;;;;;;;;;;15.20;99.90;;;;;;5118851;28;724;-53
2022/02/15 07:18:43;;;;;;;;;;;15.30;99.90;;;;;;5118651;28;1971;-53
2022/02/15 07:21:27;;;;;;;;;;;15.30;99.90;;;;;;5103625;28;713;-53
2022/02/15 07:24:12;;;;;;;;;;;15.30;99.90;;;;;;5103428;28;669;-54
2022/02/15 07:26:56;;;;;;;;;;;15.30;99.90;;;;;;5118299;28;698;-54
2022/02/15 07:29:41;;;;;;;;;;;15.30;99.90;;;;;;5118014;28;713;-53
2022/02/15 07:32:25;;;;;;;;;;;15.40;99.90;;;;;;5103081;28;1219;-53
2022/02/15 07:35:10;;;;;;;;;;;15.40;99.90;;;;;;5116754;28;1217;-53
2022/02/15 07:37:56;;;;;;;;;;;15.50;99.90;;;;;;5114095;28;1039;-53
2022/02/15 07:40:40;;;;;;;;;;;15.50;99.90;;;;;;5115384;28;1926;-53
2022/02/15 07:43:25;;;;;;;;;;;15.50;99.90;;;;;;5118192;28;709;-53
2022/02/15 07:46:10;;;;;;;;;;;15.50;99.90;;;;;;5118320;28;665;-53
2022/02/15 07:48:54;;;;;;;;;;;15.60;99.90;;;;;;5118159;28;779;-54
2022/02/15 07:51:39;;;;;;;;;;;15.60;99.90;;;;;;5117369;28;1121;-54
2022/02/15 07:54:24;;;;;;;;;;;15.60;99.90;;;;;;5111187;28;987;-53
2022/02/15 07:57:08;;;;;;;;;;;15.60;99.90;;;;;;5113066;28;1130;-54
2022/02/15 07:59:53;;;;;;;;;;;15.60;99.90;;;;;;5112486;28;1969;-54
2022/02/15 08:02:37;;;;;;;;;;;15.70;99.90;;;;;;5108266;28;971;-54
2022/02/15 08:05:22;;;;;;;;;;;15.70;99.90;;;;;;5096563;28;1114;-53
2022/02/15 08:08:07;;;;;;;;;;;15.70;99.90;;;;;;5111789;28;1004;-46
2022/02/15 08:10:56;;;;;;;;;;;15.70;99.90;;;;;;5113629;28;1217;-46
2022/02/15 08:13:42;;;;;;;;;;;15.70;99.90;;;;;;5111793;28;1002;-53
2022/02/15 08:16:27;;;;;;;;;;;15.70;99.90;;;;;;5117160;28;967;-54
2022/02/15 08:19:11;;;;;;;;;;;15.70;99.90;;;;;;5112327;28;1901;-53
2022/02/15 08:21:58;;;;;;;;;;;15.70;99.90;;;;;;5109864;28;1122;-54
2022/02/15 08:24:42;;;;;;;;;;;15.80;99.90;;;;;;5110941;28;1059;-54
2022/02/15 08:27:27;;;;;;;;;;;15.80;99.90;;;;;;5110109;28;1122;-54
2022/02/15 08:30:13;;;;;;;;;;;15.80;99.90;;;;;;5112139;28;923;-54
2022/02/15 08:32:57;;;;;;;;;;;15.90;99.90;;;;;;5111906;28;1177;-53
2022/02/15 08:35:42;;;;;;;;;;;15.90;99.90;;;;;;5113621;28;1008;-54
2022/02/15 08:38:26;;;;;;;;;;;15.90;99.90;;;;;;5117312;28;725;-54
2022/02/15 08:41:12;;;;;;;;;;;15.90;99.90;;;;;;5110906;28;1897;-54
2022/02/15 08:43:57;;;;;;;;;;;15.90;99.90;;;;;;5105220;28;1727;-55
2022/02/15 08:46:41;;;;;;;;;;;16.00;99.90;;;;;;5116144;28;1155;-54
2022/02/15 08:49:26;;;;;;;;;;;16.00;99.90;;;;;;5116208;28;1400;-54
2022/02/15 08:52:11;;;;;;;;;;;16.00;99.90;;;;;;5108364;28;1162;-54
2022/02/15 08:54:55;;;;;;;;;;;16.00;99.90;;;;;;5114367;28;1086;-54
2022/02/15 08:57:40;;;;;;;;;;;16.00;99.90;;;;;;5107611;28;1170;-54
2022/02/15 09:00:25;;;;;;;;;;;15.90;99.90;;;;;;5104960;28;1910;-56
2022/02/15 09:03:10;;;;;;;;;;;16.00;99.90;;;;;;5110506;28;1098;-54
2022/02/15 09:05:55;;;;;;;;;;;16.00;99.90;;;;;;5097124;28;933;-54
2022/02/15 09:08:40;;;;;;;;;;;16.00;99.90;;;;;;5114229;28;698;-54
2022/02/15 09:11:24;;;;;;;;;;;16.00;99.90;;;;;;5113784;28;1114;-54
2022/02/15 09:14:09;;;;;;;;;;;16.00;99.90;;;;;;5110310;28;1460;-54
2022/02/15 09:16:53;;;;;;;;;;;16.10;99.90;;;;;;5110210;28;1202;-54
2022/02/15 09:19:38;;;;;;;;;;;16.10;99.90;;;;;;5114955;28;1905;-54
2022/02/15 09:22:22;;;;;;;;;;;16.10;99.90;;;;;;5108713;28;1050;-54
2022/02/15 09:25:07;;;;;;;;;;;16.20;99.90;;;;;;5112605;28;1106;-54
2022/02/15 09:27:53;;;;;;;;;;;16.20;99.90;;;;;;5112252;28;1060;-54
2022/02/15 09:30:38;;;;;;;;;;;16.30;99.90;;;;;;5111121;28;1026;-46
2022/02/15 09:33:23;;;;;;;;;;;16.40;99.90;;;;;;5108289;28;1236;-46
2022/02/15 09:36:07;;;;;;;;;;;16.40;99.90;;;;;;5113603;28;1351;-46
2022/02/15 09:38:52;;;;;;;;;;;16.50;99.90;;;;;;5112172;28;1260;-46
2022/02/15 09:41:39;;;;;;;;;;;16.60;99.90;;;;;;5110844;28;1061;-46
2022/02/15 09:44:23;;;;;;;;;;;16.60;99.90;;;;;;5113846;28;1162;-46
2022/02/15 09:47:08;;;;;;;;;;;16.60;99.90;;;;;;5113857;28;1144;-46
2022/02/15 09:49:53;;;;;;;;;;;16.70;99.90;;;;;;5113855;28;1220;-46
2022/02/15 09:52:45;;;;;;;;;;;16.70;99.90;;;;;;5116668;28;1173;-46
2022/02/15 09:55:30;;;;;;;;;;;16.70;99.90;;;;;;5115390;28;1345;-46
2022/02/15 09:58:14;;;;;;;;;;;16.70;99.90;;;;;;5112819;28;1238;-46
2022/02/15 10:01:00;;;;;;;;;;;16.70;99.90;;;;;;5116697;28;1902;-46
2022/02/15 10:03:58;;;;;;;;;;;16.80;99.90;;;;;;5116786;28;1046;-46
2022/02/15 10:06:43;;;;;;;;;;;16.80;99.90;;;;;;5117637;28;679;-46
2022/02/15 10:09:28;;;;;;;;;;;16.80;99.90;;;;;;5119942;28;980;-46
2022/02/15 10:12:14;;;;;;;;;;;16.80;99.90;;;;;;5098859;28;1122;-46
2022/02/15 10:14:59;;;;;;;;;;;16.90;99.90;;;;;;5117495;28;1123;-54
2022/02/15 10:17:43;;;;;;;;;;;16.90;99.90;;;;;;5117015;28;671;-53
2022/02/15 10:20:28;;;;;;;;;;;16.90;99.90;;;;;;5116852;28;1909;-53
2022/02/15 10:23:18;;;;;;;;;;;16.90;99.90;;;;;;5116925;28;1070;-54
2022/02/15 10:26:06;;;;;;;;;;;17.00;99.90;;;;;;5116537;28;1103;-55
2022/02/15 10:28:51;;;;;;;;;;;17.00;99.90;;;;;;5116040;28;1125;-54
2022/02/15 10:31:40;;;;;;;;;;;17.00;99.90;;;;;;5115346;28;1113;-55
2022/02/15 10:34:26;;;;;;;;;;;17.00;99.90;;;;;;5114136;28;1201;-54
2022/02/15 10:37:13;;;;;;;;;;;17.10;99.90;;;;;;5114872;28;1300;-54
2022/02/15 10:40:02;;;;;;;;;;;17.10;99.90;;;;;;5097789;28;1901;-54
2022/02/15 10:42:51;;;;;;;;;;;17.10;99.90;;;;;;5112610;28;1259;-54
2022/02/15 10:45:36;;;;;;;;;;;17.10;99.90;;;;;;5112837;28;1133;-54
2022/02/15 10:48:31;;;;;;;;;;;17.10;99.90;;;;;;5114788;28;1204;-54
2022/02/15 10:51:16;;;;;;;;;;;17.10;99.90;;;;;;5112596;28;1210;-54
2022/02/15 10:54:01;;;;;;;;;;;17.10;99.90;;;;;;5116948;28;714;-54
2022/02/15 10:56:47;;;;;;;;;;;17.10;99.90;;;;;;5115025;28;568;-54
2022/02/15 10:59:32;;;;;;;;;;;17.10;99.90;;;;;;5111869;28;2018;-54
2022/02/15 11:02:26;;;;;;;;;;;17.10;99.90;;;;;;5114205;28;1300;-54
2022/02/15 11:05:11;;;;;;;;;;;17.10;99.90;;;;;;5116686;28;741;-55
2022/02/15 11:43:20;;;;;;;;;;;16.00;99.90;;;;;;5053373;28;1517;-52
2022/02/15 11:46:05;;;;;;;;;;;16.00;99.90;;;;;;5052966;28;992;-53
2022/02/15 11:48:50;;;;;;;;;;;16.00;99.90;;;;;;5053353;28;1076;-54
2022/02/15 11:51:35;;;;;;;;;;;16.10;99.90;;;;;;5054502;28;1188;-54
2022/02/15 11:54:24;;;;;;;;;;;16.10;99.90;;;;;;5053253;28;1198;-54
2022/02/15 11:57:09;;;;;;;;;;;16.20;99.90;;;;;;5053301;28;707;-54
2022/02/15 11:59:54;;;;;;;;;;;16.10;99.90;;;;;;5051709;28;696;-54
2022/02/15 12:02:49;;;;;;;;;;;16.10;99.90;;;;;;5053028;28;1902;-48
2022/02/15 12:05:40;;;;;;;;;;;16.10;99.90;;;;;;5053075;28;1036;-48
2022/02/15 12:08:24;;;;;;;;;;;16.10;99.90;;;;;;5049723;28;656;-57
2022/02/15 12:11:09;;;;;;;;;;;16.10;99.90;;;;;;5052301;28;699;-50
2022/02/15 12:13:53;;;;;;;;;;;16.10;99.90;;;;;;5051469;28;612;-50
2022/02/15 12:16:42;;;;;;;;;;;16.10;99.90;;;;;;5049533;28;568;-49
2022/02/15 12:19:31;;;;;;;;;;;16.10;99.90;;;;;;5053132;28;691;-48
2022/02/15 12:22:16;;;;;;;;;;;16.10;99.90;;;;;;5052162;28;1906;-50
2022/02/15 12:25:01;;;;;;;;;;;16.00;99.90;;;;;;5050753;28;632;-50
2022/02/15 12:27:46;;;;;;;;;;;16.10;99.90;;;;;;5052574;28;716;-50
2022/02/15 12:30:31;;;;;;;;;;;16.10;99.90;;;;;;5052930;28;735;-49
2022/02/15 12:33:18;;;;;;;;;;;16.20;99.90;;;;;;5052582;28;1036;-49
2022/02/15 12:36:06;;;;;;;;;;;16.20;99.90;;;;;;5051762;28;657;-49
2022/02/15 12:38:51;;;;;;;;;;;16.20;99.90;;;;;;5051979;28;666;-48
2022/02/15 12:41:41;;;;;;;;;;;16.30;99.90;;;;;;5057937;28;1965;-49
2022/02/15 12:44:26;;;;;;;;;;;16.40;99.90;;;;;;5072588;28;663;-49
2022/02/15 12:47:12;;;;;;;;;;;16.30;99.90;;;;;;5057818;28;710;-49
2022/02/15 12:49:58;;;;;;;;;;;16.20;99.90;;;;;;5071508;28;1054;-49
2022/02/15 12:52:43;;;;;;;;;;;16.20;99.90;;;;;;5074143;28;1163;-48
2022/02/15 12:55:27;;;;;;;;;;;16.20;99.90;;;;;;5056655;28;710;-49
2022/02/15 12:58:13;;;;;;;;;;;16.10;99.90;;;;;;5057457;28;1179;-49
2022/02/15 13:00:59;;;;;;;;;;;16.10;99.90;;;;;;5057265;28;1293;-50
2022/02/15 13:03:44;;;;;;;;;;;16.10;99.90;;;;;;5053825;28;1390;-50
2022/02/15 13:06:29;;;;;;;;;;;16.00;99.90;;;;;;5059428;28;1043;-49
2022/02/15 13:09:14;;;;;;;;;;;16.10;99.90;;;;;;5038216;28;1063;-49
2022/02/15 13:12:03;;;;;;;;;;;16.10;99.90;;;;;;5061925;28;1051;-49
2022/02/15 13:14:53;;;;;;;;;;;16.10;99.90;;;;;;5057336;28;695;-49
2022/02/15 13:17:38;;;;;;;;;;;16.20;99.90;;;;;;5055705;28;663;-49
2022/02/15 13:20:24;;;;;;;;;;;16.20;99.90;;;;;;5058777;28;888;-61
2022/02/15 13:23:10;;;;;;;;;;;16.40;99.90;;;;;;5053233;28;1898;-60
2022/02/15 13:25:56;;;;;;;;;;;16.40;99.90;;;;;;5044571;28;561;-61
2022/02/15 13:28:41;;;;;;;;;;;16.40;99.90;;;;;;5058189;28;974;-49
2022/02/15 13:31:26;;;;;;;;;;;16.50;99.90;;;;;;5053781;28;660;-49
2022/02/15 13:34:11;;;;;;;;;;;16.50;99.90;;;;;;5057774;28;687;-50
2022/02/15 13:36:57;;;;;;;;;;;16.60;99.90;;;;;;5058232;28;754;-50
2022/02/15 13:39:41;;;;;;;;;;;16.60;99.90;;;;;;5058345;28;725;-50
2022/02/15 13:42:27;;;;;;;;;;;16.60;99.90;;;;;;5057029;28;1985;-49
2022/02/15 13:45:12;;;;;;;;;;;16.70;99.90;;;;;;5057680;28;654;-50
2022/02/15 13:47:58;;;;;;;;;;;16.70;99.90;;;;;;5058149;28;723;-61
2022/02/15 13:50:42;;;;;;;;;;;16.70;99.90;;;;;;5060627;28;992;-61
2022/02/15 13:53:27;;;;;;;;;;;16.80;99.90;;;;;;5056657;28;1343;-61
2022/02/15 13:56:11;;;;;;;;;;;16.80;99.90;;;;;;5039099;28;648;-61
2022/02/15 13:58:56;;;;;;;;;;;16.80;99.90;;;;;;5057845;28;639;-61
2022/02/15 14:01:42;;;;;;;;;;;16.90;99.90;;;;;;5056553;28;1963;-61
2022/02/15 14:04:28;;;;;;;;;;;16.90;99.90;;;;;;5052814;28;723;-61
2022/02/15 14:07:12;;;;;;;;;;;16.90;99.90;;;;;;5057547;28;599;-61
2022/02/15 14:09:57;;;;;;;;;;;17.00;99.90;;;;;;5057709;28;710;-61
2022/02/15 14:12:41;;;;;;;;;;;17.00;99.90;;;;;;5029001;28;599;-61
2022/02/15 14:15:28;;;;;;;;;;;17.00;99.90;;;;;;5042311;28;711;-61
2022/02/15 14:18:13;;;;;;;;;;;17.00;99.90;;;;;;5057549;28;710;-61
2022/02/15 14:20:58;;;;;;;;;;;17.10;99.90;;;;;;5057389;28;639;-50
2022/02/15 14:23:44;;;;;;;;;;;17.10;99.90;;;;;;5057447;28;765;-50
2022/02/15 14:26:31;;;;;;;;;;;17.10;99.90;;;;;;5061741;28;741;-51
2022/02/15 14:29:16;;;;;;;;;;;17.10;99.90;;;;;;5055655;28;1505;-50
2022/02/15 14:32:00;;;;;;;;;;;17.10;99.90;;;;;;5058466;28;1552;-51
2022/02/15 14:34:45;;;;;;;;;;;17.10;99.90;;;;;;5051440;28;596;-50
2022/02/15 14:37:31;;;;;;;;;;;17.10;99.90;;;;;;5056582;28;672;-50
2022/02/15 14:40:15;;;;;;;;;;;17.20;99.90;;;;;;5057133;28;699;-50
2022/02/15 14:43:01;;;;;;;;;;;17.20;99.90;;;;;;5050234;28;1973;-50
2022/02/15 14:45:45;;;;;;;;;;;17.30;99.90;;;;;;5055927;28;1233;-49
2022/02/15 14:48:29;;;;;;;;;;;17.30;99.90;;;;;;5054827;28;1122;-50
2022/02/15 14:51:14;;;;;;;;;;;17.30;99.90;;;;;;5051696;28;1093;-49
2022/02/15 14:53:58;;;;;;;;;;;17.30;99.90;;;;;;5056578;28;731;-50
2022/02/15 14:56:43;;;;;;;;;;;17.40;99.90;;;;;;5058133;28;703;-61
2022/02/15 14:59:27;;;;;;;;;;;17.40;99.90;;;;;;5051483;28;663;-61
2022/02/15 15:02:12;;;;;;;;;;;17.40;99.90;;;;;;5056048;28;1968;-61
2022/02/15 15:04:56;;;;;;;;;;;17.40;99.90;;;;;;5054997;28;1003;-61
2022/02/15 15:07:41;;;;;;;;;;;17.50;99.90;;;;;;5051009;28;575;-61
2022/02/15 15:10:27;;;;;;;;;;;17.50;99.90;;;;;;5056631;28;757;-60
2022/02/15 15:13:12;;;;;;;;;;;17.50;99.90;;;;;;5056278;28;691;-60
2022/02/15 15:15:57;;;;;;;;;;;17.50;99.90;;;;;;5055906;28;634;-59
2022/02/15 15:18:42;;;;;;;;;;;17.60;99.90;;;;;;5056329;28;723;-59
2022/02/15 15:21:27;;;;;;;;;;;17.60;99.90;;;;;;5056013;28;1990;-61
2022/02/15 15:24:14;;;;;;;;;;;17.60;99.90;;;;;;5051009;28;688;-61
2022/02/15 15:27:01;;;;;;;;;;;17.70;99.90;;;;;;5060840;28;1123;-60
2022/02/15 15:29:46;;;;;;;;;;;17.70;99.90;;;;;;5054100;28;1346;-61
2022/02/15 15:32:30;;;;;;;;;;;17.80;99.90;;;;;;5055339;28;1047;-61
2022/02/15 15:35:15;;;;;;;;;;;17.80;99.90;;;;;;5054940;28;996;-60
2022/02/15 15:38:00;;;;;;;;;;;17.80;99.90;;;;;;5050684;28;1020;-61
2022/02/15 15:40:46;;;;;;;;;;;17.80;99.90;;;;;;5051347;28;1367;-61
2022/02/15 15:43:32;;;;;;;;;;;17.80;99.90;;;;;;5013608;28;1910;-61
2022/02/15 15:46:16;;;;;;;;;;;17.80;99.90;;;;;;5019233;28;940;-62
2022/02/15 15:49:02;;;;;;;;;;;17.80;99.90;;;;;;5015334;28;1345;-60
2022/02/15 15:51:46;;;;;;;;;;;17.70;99.90;;;;;;5015738;28;1188;-61
2022/02/15 15:54:31;;;;;;;;;;;17.70;99.90;;;;;;5011628;28;1014;-63
2022/02/15 15:57:16;;;;;;;;;;;17.70;99.90;;;;;;5018368;28;872;-62
2022/02/15 16:00:00;;;;;;;;;;;17.80;99.90;;;;;;5015994;28;923;-62
2022/02/15 16:02:45;;;;;;;;;;;17.70;99.90;;;;;;5015655;28;1930;-51
2022/02/15 16:05:29;;;;;;;;;;;17.70;99.90;;;;;;5015967;28;978;-51
2022/02/15 16:08:14;;;;;;;;;;;17.70;99.90;;;;;;5016075;28;997;-50
2022/02/15 16:10:58;;;;;;;;;;;17.70;99.90;;;;;;5015580;28;974;-51
2022/02/15 16:13:43;;;;;;;;;;;17.70;99.90;;;;;;5012914;28;1039;-51
2022/02/15 16:16:27;;;;;;;;;;;17.70;99.90;;;;;;5015553;28;993;-51
2022/02/15 16:19:12;;;;;;;;;;;17.60;99.90;;;;;;5014933;28;584;-50
2022/02/15 16:21:57;;;;;;;;;;;17.50;99.90;;;;;;5014879;28;1898;-51
2022/02/15 16:24:42;;;;;;;;;;;17.40;99.90;;;;;;5015768;28;658;-50
2022/02/15 16:27:27;;;;;;;;;;;17.40;99.90;;;;;;5015576;28;724;-50
2022/02/15 16:30:11;;;;;;;;;;;17.50;99.90;;;;;;5019778;28;679;-51
2022/02/15 16:32:58;;;;;;;;;;;17.50;99.90;;;;;;5017908;28;996;-50
2022/02/15 16:35:42;;;;;;;;;;;17.60;99.90;;;;;;5018837;28;1020;-51
2022/02/15 16:38:30;;;;;;;;;;;17.60;99.90;;;;;;5019271;28;1095;-50
2022/02/15 16:41:14;;;;;;;;;;;17.70;99.90;;;;;;5024420;28;1038;-50
2022/02/15 16:43:59;;;;;;;;;;;17.70;99.90;;;;;;5058323;28;1965;-50
2022/02/15 16:46:44;;;;;;;;;;;17.70;99.90;;;;;;5057994;28;1230;-51
2022/02/15 16:49:28;;;;;;;;;;;17.90;99.90;;;;;;5057744;28;996;-50
2022/02/15 16:52:13;;;;;;;;;;;17.90;99.90;;;;;;5056939;28;1111;-60
2022/02/15 16:54:57;;;;;;;;;;;17.90;99.90;;;;;;5056956;28;647;-60
2022/02/15 16:57:42;;;;;;;;;;;18.00;99.90;;;;;;5041662;28;1473;-60
2022/02/15 17:00:27;;;;;;;;;;;18.00;99.90;;;;;;5056010;28;1623;-60
2022/02/15 17:03:11;;;;;;;;;;;17.90;99.90;;;;;;5058823;28;1910;-60
2022/02/15 17:05:56;;;;;;;;;;;18.00;99.90;;;;;;5058590;28;702;-60